NJE341I LMML-LFMD
Flight info
| Callsign | NJE341I |
|---|---|
| Flight time | N/A |
| Altitude | 30000 |
| Route | GZO M622 SOPIR/N0498F430 DCT ADEXI DCT GITRI DCT ROMPO DCT RUGOX DCT MADKA DCT AJO DCT BEBEV DCT OMEDA M622 LONSU |
| Aircraft | GLF5/M-SBDE2E3FGHIJ4J5M1RWXY/LB1D1 |
Departure
| Time | 2026-05-01 14:48 |
|---|---|
| Airport | Malta International Airport (LMML) |
Arrival
| Time | N/A |
|---|---|
| Airport | Cannes Mandelieu Airport (LFMD) |
| Time | Latitude | Longitude | Altitude | Speed | Heading |
|---|---|---|---|---|---|
| 2026-05-01 14:18 | 35.86024 | 14.47571 | 273 ft | 0 kts | 90° |
| 2026-05-01 14:37 | 35.86024 | 14.47586 | 273 ft | 6 kts | 89° |
| 2026-05-01 14:37 | 35.85988 | 14.47674 | 273 ft | 21 kts | 128° |
| 2026-05-01 14:37 | 35.85916 | 14.47782 | 273 ft | 15 kts | 92° |
| 2026-05-01 14:37 | 35.85944 | 14.47894 | 273 ft | 13 kts | 70° |
| 2026-05-01 14:38 | 35.85970 | 14.47971 | 273 ft | 0 kts | 63° |
| 2026-05-01 14:39 | 35.85971 | 14.47972 | 273 ft | 0 kts | 63° |
| 2026-05-01 14:39 | 35.85981 | 14.47998 | 273 ft | 8 kts | 63° |
| 2026-05-01 14:40 | 35.86003 | 14.48053 | 273 ft | 0 kts | 62° |
| 2026-05-01 14:40 | 35.86009 | 14.48067 | 273 ft | 6 kts | 62° |
| 2026-05-01 14:40 | 35.85958 | 14.48137 | 273 ft | 20 kts | 156° |
| 2026-05-01 14:41 | 35.85820 | 14.48174 | 271 ft | 14 kts | 170° |
| 2026-05-01 14:41 | 35.85718 | 14.48194 | 269 ft | 14 kts | 171° |
| 2026-05-01 14:41 | 35.85661 | 14.48145 | 267 ft | 4 kts | 268° |
| 2026-05-01 14:41 | 35.85660 | 14.48123 | 267 ft | 0 kts | 268° |
| 2026-05-01 14:44 | 35.85660 | 14.48091 | 266 ft | 0 kts | 270° |
| 2026-05-01 14:45 | 35.85660 | 14.48085 | 266 ft | 1 kts | 270° |
| 2026-05-01 14:45 | 35.85664 | 14.47970 | 267 ft | 14 kts | 270° |
| 2026-05-01 14:45 | 35.85563 | 14.47982 | 264 ft | 1 kts | 134° |
| 2026-05-01 14:46 | 35.85562 | 14.47982 | 264 ft | 0 kts | 134° |
| 2026-05-01 14:47 | 35.85559 | 14.47986 | 264 ft | 3 kts | 133° |
| 2026-05-01 14:47 | 35.85398 | 14.48185 | 263 ft | 75 kts | 132° |
| 2026-05-01 14:48 | 35.82632 | 14.49555 | 1900 ft | 192 kts | 201° |
| 2026-05-01 14:48 | 35.81552 | 14.46496 | 3187 ft | 261 kts | 284° |
| 2026-05-01 14:49 | 35.84083 | 14.43813 | 6170 ft | 254 kts | 339° |
| 2026-05-01 14:49 | 35.87322 | 14.42270 | 8975 ft | 264 kts | 336° |
| 2026-05-01 14:50 | 35.89449 | 14.40900 | 10678 ft | 275 kts | 324° |
| 2026-05-01 14:50 | 35.93595 | 14.35965 | 13035 ft | 331 kts | 310° |
| 2026-05-01 14:51 | 35.95049 | 14.33861 | 14244 ft | 339 kts | 309° |
| 2026-05-01 14:51 | 35.97977 | 14.29437 | 16955 ft | 345 kts | 307° |
| 2026-05-01 14:52 | 36.00962 | 14.24836 | 19448 ft | 356 kts | 306° |
| 2026-05-01 14:52 | 36.02501 | 14.22454 | 20705 ft | 362 kts | 306° |
| 2026-05-01 14:52 | 36.05579 | 14.18881 | 22594 ft | 378 kts | 320° |
| 2026-05-01 14:53 | 36.07698 | 14.17023 | 23650 ft | 385 kts | 319° |
| 2026-05-01 14:53 | 36.09893 | 14.15087 | 24746 ft | 392 kts | 319° |
| 2026-05-01 14:53 | 36.12804 | 14.12512 | 26198 ft | 399 kts | 319° |
| 2026-05-01 14:53 | 36.15028 | 14.10542 | 27227 ft | 404 kts | 319° |
| 2026-05-01 14:54 | 36.17327 | 14.08504 | 28224 ft | 409 kts | 319° |
| 2026-05-01 14:54 | 36.19622 | 14.06467 | 29166 ft | 414 kts | 319° |
| 2026-05-01 14:54 | 36.21932 | 14.04417 | 30061 ft | 420 kts | 319° |
| 2026-05-01 14:54 | 36.24293 | 14.02317 | 30985 ft | 425 kts | 319° |
| 2026-05-01 14:55 | 36.26670 | 14.00206 | 32114 ft | 423 kts | 319° |
| 2026-05-01 14:55 | 36.28209 | 13.98838 | 33041 ft | 418 kts | 319° |
| 2026-05-01 14:55 | 36.31307 | 13.96077 | 34554 ft | 412 kts | 320° |
| 2026-05-01 14:55 | 36.33620 | 13.94015 | 35258 ft | 413 kts | 319° |
| 2026-05-01 14:56 | 36.35899 | 13.91982 | 35883 ft | 415 kts | 319° |
| 2026-05-01 14:56 | 36.38216 | 13.89913 | 36576 ft | 417 kts | 320° |
| 2026-05-01 14:56 | 36.39751 | 13.88543 | 37181 ft | 416 kts | 320° |
| 2026-05-01 14:56 | 36.42063 | 13.86476 | 37969 ft | 418 kts | 320° |
| 2026-05-01 14:57 | 36.45177 | 13.83688 | 38856 ft | 419 kts | 320° |
| 2026-05-01 14:57 | 36.49817 | 13.79534 | 40031 ft | 419 kts | 320° |
| 2026-05-01 14:57 | 36.52158 | 13.77438 | 40517 ft | 419 kts | 320° |
| 2026-05-01 14:58 | 36.54526 | 13.75311 | 40933 ft | 421 kts | 320° |
| 2026-05-01 14:58 | 36.56872 | 13.73207 | 41413 ft | 421 kts | 320° |
| 2026-05-01 14:58 | 36.59228 | 13.71090 | 41876 ft | 420 kts | 320° |
| 2026-05-01 14:58 | 36.61518 | 13.69030 | 42287 ft | 420 kts | 320° |
| 2026-05-01 14:59 | 36.63083 | 13.67623 | 42522 ft | 421 kts | 320° |
| 2026-05-01 14:59 | 36.66248 | 13.64773 | 43011 ft | 423 kts | 320° |
| 2026-05-01 14:59 | 36.71094 | 13.60402 | 43090 ft | 445 kts | 320° |
| 2026-05-01 15:00 | 36.75314 | 13.56590 | 43089 ft | 461 kts | 321° |
| 2026-05-01 15:00 | 36.77910 | 13.54246 | 43094 ft | 468 kts | 321° |
| 2026-05-01 15:01 | 36.83941 | 13.48789 | 43077 ft | 462 kts | 321° |
| 2026-05-01 15:01 | 36.89003 | 13.44198 | 43083 ft | 455 kts | 321° |
| 2026-05-01 15:02 | 36.93982 | 13.39675 | 43089 ft | 456 kts | 321° |
| 2026-05-01 15:02 | 36.99066 | 13.35048 | 43090 ft | 458 kts | 321° |
| 2026-05-01 15:03 | 37.04149 | 13.30416 | 43095 ft | 459 kts | 320° |
| 2026-05-01 15:03 | 37.09208 | 13.25797 | 43099 ft | 457 kts | 320° |
| 2026-05-01 15:04 | 37.13391 | 13.21974 | 43107 ft | 456 kts | 320° |
| 2026-05-01 15:04 | 37.19302 | 13.16558 | 43098 ft | 458 kts | 320° |
| 2026-05-01 15:05 | 37.24347 | 13.11929 | 43102 ft | 457 kts | 320° |
| 2026-05-01 15:05 | 37.29348 | 13.07332 | 43110 ft | 456 kts | 320° |
| 2026-05-01 15:06 | 37.34380 | 13.02702 | 43094 ft | 455 kts | 321° |
| 2026-05-01 15:06 | 37.39695 | 12.98644 | 43105 ft | 459 kts | 325° |
| 2026-05-01 15:07 | 37.44117 | 12.95313 | 43099 ft | 459 kts | 325° |
| 2026-05-01 15:07 | 37.46830 | 12.93264 | 43229 ft | 456 kts | 325° |
| 2026-05-01 15:07 | 37.50199 | 12.90718 | 45172 ft | 418 kts | 325° |
| 2026-05-01 15:07 | 37.52647 | 12.88858 | 45420 ft | 422 kts | 325° |
| 2026-05-01 15:08 | 37.55098 | 12.86997 | 45495 ft | 429 kts | 325° |
| 2026-05-01 15:08 | 37.57628 | 12.85075 | 45884 ft | 429 kts | 326° |
| 2026-05-01 15:08 | 37.60119 | 12.83184 | 46349 ft | 427 kts | 326° |
| 2026-05-01 15:08 | 37.61794 | 12.81910 | 46627 ft | 426 kts | 326° |
| 2026-05-01 15:09 | 37.65120 | 12.79379 | 47037 ft | 427 kts | 326° |
| 2026-05-01 15:09 | 37.70228 | 12.75486 | 47099 ft | 443 kts | 326° |
| 2026-05-01 15:10 | 37.75455 | 12.71496 | 47101 ft | 458 kts | 326° |
| 2026-05-01 15:10 | 37.80865 | 12.67361 | 47103 ft | 469 kts | 326° |
| 2026-05-01 15:10 | 37.83639 | 12.65237 | 47105 ft | 473 kts | 326° |
| 2026-05-01 15:11 | 37.90931 | 12.59648 | 47117 ft | 470 kts | 326° |
| 2026-05-01 15:12 | 37.97226 | 12.54812 | 47117 ft | 464 kts | 326° |
| 2026-05-01 15:12 | 38.05367 | 12.48540 | 47117 ft | 467 kts | 326° |
| 2026-05-01 15:14 | 38.18069 | 12.38724 | 47126 ft | 467 kts | 326° |
| 2026-05-01 15:14 | 38.26326 | 12.32321 | 47136 ft | 468 kts | 326° |
| 2026-05-01 15:15 | 38.38193 | 12.23089 | 47141 ft | 467 kts | 326° |
| 2026-05-01 15:16 | 38.49193 | 12.14498 | 47145 ft | 468 kts | 326° |
| 2026-05-01 15:18 | 38.62928 | 12.03729 | 47151 ft | 468 kts | 326° |
| 2026-05-01 15:19 | 38.73940 | 11.95059 | 47156 ft | 468 kts | 326° |
| 2026-05-01 15:19 | 38.81299 | 11.89248 | 47162 ft | 468 kts | 326° |
| 2026-05-01 15:20 | 38.89568 | 11.82700 | 47172 ft | 468 kts | 326° |
| 2026-05-01 15:21 | 38.95097 | 11.78312 | 47175 ft | 469 kts | 326° |
| 2026-05-01 15:21 | 39.01508 | 11.73214 | 47166 ft | 469 kts | 326° |
| 2026-05-01 15:22 | 39.09716 | 11.66670 | 47158 ft | 467 kts | 326° |
| 2026-05-01 15:22 | 39.14308 | 11.63002 | 47160 ft | 467 kts | 326° |
| 2026-05-01 15:23 | 39.20712 | 11.57876 | 47163 ft | 468 kts | 326° |
| 2026-05-01 15:23 | 39.26189 | 11.53483 | 47165 ft | 468 kts | 326° |
| 2026-05-01 15:24 | 39.31652 | 11.49093 | 47167 ft | 469 kts | 326° |
| 2026-05-01 15:24 | 39.36232 | 11.45407 | 47171 ft | 468 kts | 326° |
| 2026-05-01 15:25 | 39.41676 | 11.41018 | 47165 ft | 468 kts | 326° |
| 2026-05-01 15:25 | 39.48056 | 11.35863 | 47167 ft | 467 kts | 326° |
| 2026-05-01 15:26 | 39.53536 | 11.31427 | 47179 ft | 468 kts | 326° |
| 2026-05-01 15:26 | 39.58980 | 11.27011 | 47194 ft | 467 kts | 326° |
| 2026-05-01 15:27 | 39.64415 | 11.22595 | 47176 ft | 467 kts | 326° |
| 2026-05-01 15:28 | 39.72617 | 11.15913 | 47185 ft | 467 kts | 326° |
| 2026-05-01 15:28 | 39.78078 | 11.11454 | 47184 ft | 467 kts | 326° |
| 2026-05-01 15:29 | 39.85377 | 11.05481 | 47188 ft | 468 kts | 326° |
| 2026-05-01 15:30 | 39.96359 | 10.96467 | 47189 ft | 468 kts | 326° |
| 2026-05-01 15:31 | 40.13714 | 10.82150 | 47208 ft | 467 kts | 326° |
| 2026-05-01 15:32 | 40.23721 | 10.73854 | 47214 ft | 468 kts | 326° |
| 2026-05-01 15:34 | 40.40012 | 10.60286 | 47201 ft | 467 kts | 326° |